Terminal Aerodrome Forecast
Issued by NWS Sterling, VA

Current Version | Previous Version | Graphics & Text | Print | Product List | Glossary On
Versions: 1 2 3 4 5 6 7 8 9 10 11 12 13 14 15 16 17 18 19 20 21 22 23 24 25 26 27
858
FTUS41 KLWX 282326
TAFIAD
TAF
KIAD 282326Z 2900/3006 09005KT P6SM -TSRA OVC050CB
     FM290300 11004KT 5SM -SHRA VCTS OVC060CB
     FM290600 VRB03KT P6SM SHRA VCTS OVC050CB
     FM290900 27004KT P6SM -SHRA OVC040
     FM291200 31006KT P6SM OVC045
     FM291600 32009KT P6SM BKN030
     FM291700 33009KT P6SM BKN040=

USA.gov is the U.S. government's official web portal to all federal, state and local government web resources and services.